Time;durP1;ratioP1;P1;durP2;ratioP2;P2;SDS_P1;SDS_P2;PMS_P1;PMS_P2;Temp;Humidity;BMP_temperature;BMP_pressure;BME280_temperature;BME280_humidity;BME280_pressure;Samples;Min_cycle;Max_cycle;Signal;HPM_P1;HPM_P2
2021/12/30 00:01:33;;;;;;;29.77;14.38;;;;;;;;;;4958267;28;20283;-90
2021/12/30 00:03:59;;;;;;;28.85;15.35;;;;;;;;;;4957225;28;20015;-90
2021/12/30 00:06:24;;;;;;;36.45;17.05;;;;;;;;;;4974196;28;20027;-90
2021/12/30 00:08:51;;;;;;;48.88;19.88;;;;;;;;;;4957775;28;20026;-90
2021/12/30 00:11:16;;;;;;;31.20;16.48;;;;;;;;;;4976678;28;20027;-90
2021/12/30 00:13:45;;;;;;;29.83;14.88;;;;;;;;;;4977577;28;20027;-90
2021/12/30 00:16:11;;;;;;;38.42;17.30;;;;;;;;;;4960446;28;20037;-90
2021/12/30 00:18:36;;;;;;;38.60;17.40;;;;;;;;;;4977003;28;20106;-90
2021/12/30 00:21:01;;;;;;;26.17;14.77;;;;;;;;;;4976661;28;20054;-90
2021/12/30 00:23:26;;;;;;;50.53;19.88;;;;;;;;;;4959461;28;20469;-90
2021/12/30 00:25:52;;;;;;;34.83;17.43;;;;;;;;;;4959374;28;20027;-90
2021/12/30 00:28:18;;;;;;;35.47;17.33;;;;;;;;;;4969116;28;20269;-90
2021/12/30 00:30:44;;;;;;;38.30;17.92;;;;;;;;;;4976657;28;20262;-90
2021/12/30 00:33:10;;;;;;;42.00;20.33;;;;;;;;;;4959526;28;20034;-90
2021/12/30 00:35:35;;;;;;;39.65;18.40;;;;;;;;;;4959229;28;20383;-90
2021/12/30 00:38:01;;;;;;;39.42;19.67;;;;;;;;;;4959635;28;20125;-90
2021/12/30 00:40:26;;;;;;;73.38;24.42;;;;;;;;;;4976736;28;20034;-90
2021/12/30 00:42:53;;;;;;;58.03;22.70;;;;;;;;;;4958951;28;20109;-90
2021/12/30 00:45:18;;;;;;;55.03;22.55;;;;;;;;;;4958882;28;20069;-90
2021/12/30 00:47:43;;;;;;;58.58;21.85;;;;;;;;;;4958870;28;20023;-90
2021/12/30 00:50:09;;;;;;;157.38;26.90;;;;;;;;;;4973558;28;20129;-90
2021/12/30 00:52:34;;;;;;;75.97;24.52;;;;;;;;;;4975511;28;20019;-90
2021/12/30 00:55:00;;;;;;;136.38;32.28;;;;;;;;;;4975925;28;20019;-90
2021/12/30 00:57:25;;;;;;;82.75;26.65;;;;;;;;;;4976082;28;20683;-90
2021/12/30 00:59:50;;;;;;;162.07;32.72;;;;;;;;;;4976314;28;20023;-90
2021/12/30 01:02:15;;;;;;;221.87;34.93;;;;;;;;;;4984315;28;20022;-90
2021/12/30 01:04:40;;;;;;;225.48;35.55;;;;;;;;;;4976234;28;20322;-90
2021/12/30 01:07:06;;;;;;;209.40;34.93;;;;;;;;;;4974755;28;20019;-90
2021/12/30 01:09:31;;;;;;;269.80;39.83;;;;;;;;;;4974687;28;20270;-90
2021/12/30 01:11:58;;;;;;;234.40;38.03;;;;;;;;;;4974630;28;20019;-90
2021/12/30 01:14:27;;;;;;;260.10;39.35;;;;;;;;;;4974488;28;20065;-90
2021/12/30 01:16:56;;;;;;;233.60;33.55;;;;;;;;;;4973498;28;20034;-90
2021/12/30 01:19:42;;;;;;;265.13;37.88;;;;;;;;;;4974721;28;20584;-90
2021/12/30 01:22:08;;;;;;;280.75;39.47;;;;;;;;;;4974936;28;20057;-91
2021/12/30 01:24:33;;;;;;;244.00;34.92;;;;;;;;;;4976276;28;20026;-90
2021/12/30 01:26:58;;;;;;;247.85;35.28;;;;;;;;;;4974480;28;20788;-90
2021/12/30 01:29:26;;;;;;;322.75;37.63;;;;;;;;;;4974194;28;20023;-90
2021/12/30 01:31:51;;;;;;;279.80;36.85;;;;;;;;;;4975509;28;20019;-90
2021/12/30 01:34:17;;;;;;;209.57;36.33;;;;;;;;;;4993755;28;20030;-89
2021/12/30 01:36:42;;;;;;;222.60;37.70;;;;;;;;;;4974315;28;20121;-90
2021/12/30 01:39:07;;;;;;;245.48;37.28;;;;;;;;;;4975645;28;20019;-90
2021/12/30 01:41:33;;;;;;;209.27;35.45;;;;;;;;;;4974666;28;20027;-90
2021/12/30 01:43:58;;;;;;;133.90;30.67;;;;;;;;;;4975235;28;20030;-90
2021/12/30 01:46:23;;;;;;;168.73;33.13;;;;;;;;;;4974221;28;20031;-90
2021/12/30 01:48:48;;;;;;;158.17;31.10;;;;;;;;;;4972498;28;20047;-90
2021/12/30 01:51:13;;;;;;;190.35;35.70;;;;;;;;;;4971961;28;20269;-90
2021/12/30 01:53:39;;;;;;;217.93;39.38;;;;;;;;;;4971459;28;20074;-90
2021/12/30 01:56:04;;;;;;;193.18;35.97;;;;;;;;;;4972801;28;20039;-90
2021/12/30 01:58:30;;;;;;;111.82;30.70;;;;;;;;;;4972640;28;20031;-90
2021/12/30 02:00:55;;;;;;;137.73;34.30;;;;;;;;;;4973600;28;20022;-90
2021/12/30 02:03:21;;;;;;;136.40;33.42;;;;;;;;;;4979257;28;20114;-90
2021/12/30 02:05:46;;;;;;;120.10;32.72;;;;;;;;;;4970925;28;20394;-90
2021/12/30 02:08:14;;;;;;;113.30;34.20;;;;;;;;;;4970782;28;20543;-89
2021/12/30 02:10:40;;;;;;;143.18;33.30;;;;;;;;;;4971141;28;20022;-90
2021/12/30 02:13:06;;;;;;;125.70;32.95;;;;;;;;;;4970891;28;20019;-90
2021/12/30 02:15:32;;;;;;;105.32;31.00;;;;;;;;;;4972056;28;20030;-90
2021/12/30 02:17:59;;;;;;;109.22;29.25;;;;;;;;;;4970605;28;20034;-90
2021/12/30 02:20:46;;;;;;;108.97;29.05;;;;;;;;;;4970835;28;20399;-90
2021/12/30 02:23:13;;;;;;;102.30;26.10;;;;;;;;;;4971026;28;20019;-90
2021/12/30 02:25:38;;;;;;;104.25;24.83;;;;;;;;;;4971644;28;20073;-90
2021/12/30 02:28:11;;;;;;;112.72;25.33;;;;;;;;;;4971044;28;20117;-90
2021/12/30 02:30:37;;;;;;;106.85;22.52;;;;;;;;;;4974875;28;20015;-90
2021/12/30 02:33:03;;;;;;;100.70;23.38;;;;;;;;;;4976582;28;20509;-90
2021/12/30 02:35:28;;;;;;;89.88;21.38;;;;;;;;;;4974797;28;20015;-90
2021/12/30 02:37:53;;;;;;;105.88;19.65;;;;;;;;;;4975841;28;20128;-91
2021/12/30 02:40:26;;;;;;;99.93;19.67;;;;;;;;;;4977738;28;20027;-91
2021/12/30 02:42:51;;;;;;;88.75;17.25;;;;;;;;;;4981566;28;20266;-90
2021/12/30 02:45:16;;;;;;;87.40;17.23;;;;;;;;;;4974143;28;20026;-91
2021/12/30 02:47:41;;;;;;;110.82;18.10;;;;;;;;;;4975594;28;20035;-91
2021/12/30 02:50:07;;;;;;;80.00;14.68;;;;;;;;;;4975116;28;20484;-91
2021/12/30 02:52:32;;;;;;;79.03;14.80;;;;;;;;;;4974777;28;20054;-91
2021/12/30 02:54:57;;;;;;;86.82;15.82;;;;;;;;;;4976817;28;20030;-91
2021/12/30 02:57:24;;;;;;;99.32;15.27;;;;;;;;;;4978228;28;20041;-91
2021/12/30 02:59:49;;;;;;;95.18;14.20;;;;;;;;;;4977439;28;20027;-91
2021/12/30 03:02:15;;;;;;;97.80;14.05;;;;;;;;;;4978382;28;20019;-91
2021/12/30 03:04:41;;;;;;;76.60;13.47;;;;;;;;;;4978596;28;20023;-90
2021/12/30 03:07:06;;;;;;;101.95;11.80;;;;;;;;;;4977018;28;20362;-90
2021/12/30 03:09:31;;;;;;;85.22;12.93;;;;;;;;;;4977088;28;20050;-91
2021/12/30 03:11:57;;;;;;;100.93;12.55;;;;;;;;;;4978256;28;20081;-91
2021/12/30 03:14:24;;;;;;;99.97;12.77;;;;;;;;;;4981879;28;20022;-91
2021/12/30 03:16:50;;;;;;;115.10;15.27;;;;;;;;;;4978313;28;20027;-91
2021/12/30 03:19:15;;;;;;;79.45;12.63;;;;;;;;;;4977118;28;20018;-90
2021/12/30 03:21:40;;;;;;;85.03;12.43;;;;;;;;;;4977979;28;20380;-91
2021/12/30 03:24:06;;;;;;;86.38;10.80;;;;;;;;;;4976901;28;20328;-91
2021/12/30 03:26:32;;;;;;;98.50;13.98;;;;;;;;;;4977743;28;20073;-91
2021/12/30 03:28:57;;;;;;;100.20;14.15;;;;;;;;;;4976766;28;20471;-91
2021/12/30 03:31:22;;;;;;;97.65;12.75;;;;;;;;;;4976600;28;20118;-91
2021/12/30 03:33:48;;;;;;;92.60;11.85;;;;;;;;;;4977673;28;20046;-91
2021/12/30 03:36:14;;;;;;;96.07;11.43;;;;;;;;;;4977803;28;20692;-91
2021/12/30 03:38:41;;;;;;;92.00;12.30;;;;;;;;;;4977842;28;20013;-91
2021/12/30 03:41:07;;;;;;;99.80;13.48;;;;;;;;;;4980067;28;20050;-90
2021/12/30 03:43:33;;;;;;;98.07;13.07;;;;;;;;;;4982349;28;20027;-91
2021/12/30 03:45:58;;;;;;;98.07;11.75;;;;;;;;;;4977449;28;20073;-91
2021/12/30 03:48:31;;;;;;;74.47;12.45;;;;;;;;;;4975596;28;20046;-91
2021/12/30 03:50:56;;;;;;;96.35;10.00;;;;;;;;;;4976155;28;20480;-91
2021/12/30 03:53:22;;;;;;;97.75;13.32;;;;;;;;;;4977316;28;20065;-91
2021/12/30 03:55:51;;;;;;;111.85;13.80;;;;;;;;;;4976048;28;20014;-91
2021/12/30 03:58:16;;;;;;;80.20;12.40;;;;;;;;;;4976366;28;20021;-91
2021/12/30 04:00:41;;;;;;;95.87;14.37;;;;;;;;;;4976030;28;20791;-90
2021/12/30 04:03:07;;;;;;;90.90;11.40;;;;;;;;;;4975924;28;20266;-91
2021/12/30 04:05:32;;;;;;;104.75;13.07;;;;;;;;;;4976258;28;20023;-91
2021/12/30 04:07:57;;;;;;;87.68;12.40;;;;;;;;;;4976030;28;20069;-90
2021/12/30 04:10:23;;;;;;;80.00;11.68;;;;;;;;;;4976450;28;20685;-91
2021/12/30 04:12:50;;;;;;;86.07;11.90;;;;;;;;;;4977439;28;20029;-90
2021/12/30 04:15:16;;;;;;;71.03;11.30;;;;;;;;;;4976621;28;20681;-90
2021/12/30 04:17:43;;;;;;;99.10;14.35;;;;;;;;;;4974021;28;20026;-90
2021/12/30 04:20:09;;;;;;;109.07;14.93;;;;;;;;;;4974048;28;20026;-90
2021/12/30 04:22:35;;;;;;;97.10;12.18;;;;;;;;;;4974398;28;20845;-90
2021/12/30 04:25:01;;;;;;;97.93;13.63;;;;;;;;;;4972975;28;20065;-90
2021/12/30 04:27:26;;;;;;;88.40;11.70;;;;;;;;;;4973023;28;20019;-90
2021/12/30 04:29:52;;;;;;;99.68;11.85;;;;;;;;;;4972839;28;20042;-91
2021/12/30 04:32:17;;;;;;;82.97;10.02;;;;;;;;;;4972874;28;20020;-91
2021/12/30 04:34:42;;;;;;;91.10;13.32;;;;;;;;;;4974641;28;20023;-90
2021/12/30 04:37:07;;;;;;;92.55;12.88;;;;;;;;;;4973184;28;20070;-91
2021/12/30 04:39:32;;;;;;;87.43;11.45;;;;;;;;;;4972951;28;20022;-90
2021/12/30 04:41:58;;;;;;;84.60;11.23;;;;;;;;;;4974390;28;20023;-91
2021/12/30 04:44:27;;;;;;;68.78;11.77;;;;;;;;;;4973198;28;20443;-90
2021/12/30 04:46:52;;;;;;;89.85;11.95;;;;;;;;;;4978604;28;20018;-90
2021/12/30 04:49:18;;;;;;;84.22;10.88;;;;;;;;;;4977012;28;20053;-90
2021/12/30 04:51:43;;;;;;;85.63;12.75;;;;;;;;;;4974089;28;20089;-90
2021/12/30 04:54:08;;;;;;;91.57;13.53;;;;;;;;;;4973500;28;20506;-91
2021/12/30 04:56:33;;;;;;;100.30;13.90;;;;;;;;;;4972143;28;20298;-90
2021/12/30 04:58:59;;;;;;;82.65;11.80;;;;;;;;;;4973197;28;20023;-91
2021/12/30 05:01:24;;;;;;;83.72;10.65;;;;;;;;;;4974389;28;20022;-91
2021/12/30 05:03:49;;;;;;;82.77;12.60;;;;;;;;;;4973310;28;20431;-90
2021/12/30 05:06:14;;;;;;;83.82;12.25;;;;;;;;;;4974509;28;20262;-90
2021/12/30 05:08:39;;;;;;;98.07;11.38;;;;;;;;;;4972604;28;20026;-91
2021/12/30 05:11:05;;;;;;;79.23;10.07;;;;;;;;;;4973896;28;20058;-91
2021/12/30 05:13:31;;;;;;;94.40;11.02;;;;;;;;;;4977984;28;20352;-91
2021/12/30 05:15:56;;;;;;;97.15;12.45;;;;;;;;;;4972806;28;20030;-91
2021/12/30 05:18:29;;;;;;;97.72;12.23;;;;;;;;;;4972271;28;20026;-91
2021/12/30 05:20:55;;;;;;;96.05;12.13;;;;;;;;;;4973215;28;20023;-91
2021/12/30 19:21:24;;;;;;;98.80;19.80;;;;;;;;;;5471496;23;20056;-91
2021/12/30 19:23:49;;;;;;;103.75;22.45;;;;;;;;;;4971864;28;20125;-92
2021/12/30 19:26:15;;;;;;;116.45;20.95;;;;;;;;;;4963046;28;20023;-92
2021/12/30 19:28:40;;;;;;;86.63;21.42;;;;;;;;;;4961633;28;20468;-92
2021/12/30 19:31:06;;;;;;;91.32;19.17;;;;;;;;;;4961166;28;20023;-92
2021/12/30 19:33:33;;;;;;;90.22;19.50;;;;;;;;;;4961339;28;20117;-92
2021/12/30 19:35:59;;;;;;;94.65;19.23;;;;;;;;;;4959468;28;20118;-92
2021/12/30 19:38:25;;;;;;;104.60;20.27;;;;;;;;;;4959119;28;20152;-92
2021/12/30 19:40:50;;;;;;;119.55;21.95;;;;;;;;;;4973045;28;20030;-93
2021/12/30 19:43:16;;;;;;;99.78;21.30;;;;;;;;;;4958547;28;20029;-92
2021/12/30 19:45:43;;;;;;;114.60;20.95;;;;;;;;;;4964746;28;20007;-92
2021/12/30 19:48:09;;;;;;;107.90;20.08;;;;;;;;;;4981120;28;20031;-92
2021/12/30 19:50:36;;;;;;;98.00;20.85;;;;;;;;;;4958065;28;20022;-93
2021/12/30 19:53:02;;;;;;;100.80;20.13;;;;;;;;;;4957947;28;20026;-91
2021/12/30 19:55:27;;;;;;;93.72;18.08;;;;;;;;;;4957963;28;20114;-92
2021/12/30 19:57:53;;;;;;;91.32;18.95;;;;;;;;;;4975386;28;20045;-92
2021/12/30 20:00:20;;;;;;;100.18;20.77;;;;;;;;;;4974955;28;20105;-91
2021/12/30 20:02:45;;;;;;;89.88;19.95;;;;;;;;;;4957285;28;20027;-92
2021/12/30 20:05:11;;;;;;;109.00;20.77;;;;;;;;;;4957780;28;20019;-91
2021/12/30 20:07:37;;;;;;;94.18;18.92;;;;;;;;;;4967611;28;20026;-91
2021/12/30 20:10:04;;;;;;;87.35;18.55;;;;;;;;;;4959964;28;20391;-91
2021/12/30 20:12:29;;;;;;;93.60;18.23;;;;;;;;;;4957532;28;20039;-92
2021/12/30 20:14:54;;;;;;;104.30;20.35;;;;;;;;;;4958034;28;20474;-92
2021/12/30 20:17:19;;;;;;;96.97;20.73;;;;;;;;;;4958164;28;20094;-92
2021/12/30 20:19:45;;;;;;;98.88;21.65;;;;;;;;;;4975225;28;20476;-93
2021/12/30 20:22:10;;;;;;;94.75;20.98;;;;;;;;;;4970693;28;20043;-92
2021/12/30 20:24:35;;;;;;;95.03;20.55;;;;;;;;;;4974169;28;20037;-92
2021/12/30 20:27:01;;;;;;;112.07;22.38;;;;;;;;;;4973853;28;20033;-92
2021/12/30 20:29:27;;;;;;;108.25;21.25;;;;;;;;;;4973804;28;20027;-92
2021/12/30 20:31:52;;;;;;;107.78;21.67;;;;;;;;;;4977230;28;20034;-92
2021/12/30 20:34:19;;;;;;;103.13;21.92;;;;;;;;;;4976019;28;20023;-92
2021/12/30 20:36:45;;;;;;;107.53;21.45;;;;;;;;;;4973286;28;20038;-92
2021/12/30 20:39:10;;;;;;;109.20;20.90;;;;;;;;;;4973670;28;20476;-92
2021/12/30 20:41:35;;;;;;;120.57;22.15;;;;;;;;;;4973819;28;20065;-92
2021/12/30 20:44:01;;;;;;;102.90;24.30;;;;;;;;;;4973510;28;20534;-92
2021/12/30 20:46:26;;;;;;;117.55;22.27;;;;;;;;;;4973829;28;20085;-93
2021/12/30 20:48:52;;;;;;;121.25;22.75;;;;;;;;;;4974639;28;20460;-93
2021/12/30 20:51:17;;;;;;;130.52;24.25;;;;;;;;;;4974845;28;20033;-93
2021/12/30 20:53:42;;;;;;;123.35;24.52;;;;;;;;;;4973282;28;20027;-92
2021/12/30 20:56:10;;;;;;;118.53;21.10;;;;;;;;;;4977072;28;20098;-92
2021/12/30 20:58:35;;;;;;;127.18;20.45;;;;;;;;;;4975728;28;20026;-93
2021/12/30 21:01:01;;;;;;;107.82;20.45;;;;;;;;;;4977845;28;20019;-91
2021/12/30 21:03:30;;;;;;;125.30;22.27;;;;;;;;;;4974971;28;20027;-91
2021/12/30 21:05:56;;;;;;;115.78;19.02;;;;;;;;;;4973286;28;20479;-92
2021/12/30 21:08:21;;;;;;;112.50;20.65;;;;;;;;;;4973528;28;20022;-92
2021/12/30 21:10:49;;;;;;;115.75;19.88;;;;;;;;;;4975217;28;20026;-92
2021/12/30 21:13:14;;;;;;;128.55;21.08;;;;;;;;;;4972940;28;20050;-91
2021/12/30 21:15:41;;;;;;;110.38;19.17;;;;;;;;;;4973702;28;20541;-92
2021/12/30 21:18:07;;;;;;;116.28;20.13;;;;;;;;;;4980054;28;20113;-92
2021/12/30 21:20:33;;;;;;;103.75;18.40;;;;;;;;;;4974865;28;20153;-92
2021/12/30 21:22:58;;;;;;;115.88;20.45;;;;;;;;;;4959352;28;20248;-94
2021/12/30 21:25:24;;;;;;;108.07;18.55;;;;;;;;;;4967744;28;20739;-93
2021/12/30 21:27:54;;;;;;;108.53;20.38;;;;;;;;;;4981206;28;20019;-93
2021/12/30 21:30:20;;;;;;;105.73;19.03;;;;;;;;;;4958375;28;20486;-92
2021/12/30 21:32:45;;;;;;;110.82;18.40;;;;;;;;;;4957054;28;20027;-92
2021/12/30 21:35:10;;;;;;;105.67;18.50;;;;;;;;;;4956316;28;20033;-91
2021/12/30 21:37:36;;;;;;;113.35;18.98;;;;;;;;;;4957423;28;20361;-92
2021/12/30 21:40:04;;;;;;;112.22;19.38;;;;;;;;;;4957266;28;20045;-92
2021/12/30 21:42:29;;;;;;;105.15;19.20;;;;;;;;;;4957095;28;20146;-92
2021/12/30 21:44:55;;;;;;;113.05;19.58;;;;;;;;;;4963712;28;20084;-92
2021/12/30 21:47:20;;;;;;;112.53;19.33;;;;;;;;;;4957643;28;20113;-92
2021/12/30 21:49:45;;;;;;;107.32;19.77;;;;;;;;;;4982144;28;20033;-92
2021/12/30 21:52:11;;;;;;;96.45;17.30;;;;;;;;;;4958563;28;20023;-92
2021/12/30 21:54:36;;;;;;;107.13;19.63;;;;;;;;;;4960265;28;20046;-93
2021/12/30 21:57:02;;;;;;;114.70;21.02;;;;;;;;;;4958872;28;20038;-91
2021/12/30 21:59:27;;;;;;;100.60;20.63;;;;;;;;;;4974509;28;20100;-91
2021/12/30 22:01:53;;;;;;;76.97;18.25;;;;;;;;;;4956764;28;20111;-91
2021/12/30 22:04:18;;;;;;;74.97;16.25;;;;;;;;;;4956974;28;20406;-91
2021/12/30 22:06:43;;;;;;;53.55;13.63;;;;;;;;;;4960579;28;20030;-91
2021/12/30 22:09:08;;;;;;;61.70;13.88;;;;;;;;;;4974338;28;20022;-91
2021/12/30 22:11:34;;;;;;;63.45;13.85;;;;;;;;;;4974120;28;20071;-91
2021/12/30 22:13:59;;;;;;;42.00;10.02;;;;;;;;;;4957699;28;20434;-91
2021/12/30 22:16:24;;;;;;;48.47;11.20;;;;;;;;;;4956798;28;20368;-91
2021/12/30 22:18:49;;;;;;;40.20;11.10;;;;;;;;;;4957684;28;20027;-91
2021/12/30 22:21:15;;;;;;;54.78;13.55;;;;;;;;;;4961929;28;20496;-91
2021/12/30 22:23:40;;;;;;;58.60;13.82;;;;;;;;;;4973608;28;20101;-91
2021/12/30 22:26:06;;;;;;;60.15;15.75;;;;;;;;;;4973648;28;20026;-91
2021/12/30 22:28:32;;;;;;;55.22;14.82;;;;;;;;;;4973697;28;20023;-91
2021/12/30 22:30:58;;;;;;;46.58;13.77;;;;;;;;;;4972461;28;20019;-92
2021/12/30 22:33:24;;;;;;;62.80;14.85;;;;;;;;;;4971080;28;20035;-91
2021/12/30 22:35:49;;;;;;;70.65;16.95;;;;;;;;;;4972378;28;20022;-91
2021/12/30 22:38:14;;;;;;;60.33;15.98;;;;;;;;;;4972757;28;20153;-91
2021/12/30 22:40:40;;;;;;;53.42;14.85;;;;;;;;;;4978074;28;20026;-91
2021/12/30 22:43:05;;;;;;;53.58;15.82;;;;;;;;;;4973154;28;20031;-91
2021/12/30 22:45:30;;;;;;;47.42;13.93;;;;;;;;;;4972934;28;20050;-91
2021/12/30 22:48:00;;;;;;;56.75;13.55;;;;;;;;;;4975732;28;20118;-91
2021/12/30 22:50:25;;;;;;;47.65;13.43;;;;;;;;;;4975966;28;20030;-91
2021/12/30 22:52:50;;;;;;;36.65;12.40;;;;;;;;;;4980699;28;20387;-91
2021/12/30 22:55:15;;;;;;;40.40;11.50;;;;;;;;;;4975625;28;20566;-91
2021/12/30 22:57:41;;;;;;;38.17;10.43;;;;;;;;;;4976833;28;20090;-91
2021/12/30 23:00:12;;;;;;;35.47;10.93;;;;;;;;;;4975505;28;20035;-90
2021/12/30 23:02:37;;;;;;;38.35;10.25;;;;;;;;;;4974748;28;20034;-92
2021/12/30 23:05:02;;;;;;;30.05;10.68;;;;;;;;;;4975475;28;20023;-91
2021/12/30 23:07:28;;;;;;;37.33;11.63;;;;;;;;;;4975250;28;20050;-91
2021/12/30 23:09:53;;;;;;;47.58;13.45;;;;;;;;;;4994330;28;20102;-90
2021/12/30 23:12:18;;;;;;;53.40;13.70;;;;;;;;;;4975564;28;20026;-91
2021/12/30 23:14:43;;;;;;;48.08;14.77;;;;;;;;;;4974622;28;20317;-91
2021/12/30 23:17:09;;;;;;;60.53;16.10;;;;;;;;;;4974391;28;20035;-91
2021/12/30 23:19:35;;;;;;;62.95;16.10;;;;;;;;;;4974391;28;20494;-91
2021/12/30 23:22:00;;;;;;;66.78;19.00;;;;;;;;;;4976640;28;20051;-91
2021/12/30 23:24:29;;;;;;;55.33;17.10;;;;;;;;;;4977982;28;20023;-91
2021/12/30 23:26:55;;;;;;;70.57;19.50;;;;;;;;;;4974883;28;20034;-92
2021/12/30 23:29:21;;;;;;;83.88;19.65;;;;;;;;;;4976628;28;20050;-91
2021/12/30 23:31:46;;;;;;;84.70;19.58;;;;;;;;;;4974644;28;20057;-91
2021/12/30 23:34:12;;;;;;;80.95;19.55;;;;;;;;;;4974284;28;20110;-91
2021/12/30 23:36:37;;;;;;;81.90;20.63;;;;;;;;;;4975821;28;20027;-92
2021/12/30 23:39:03;;;;;;;85.13;20.05;;;;;;;;;;4974885;28;20054;-91
2021/12/30 23:41:33;;;;;;;74.60;18.55;;;;;;;;;;4977117;28;20031;-91
2021/12/30 23:43:59;;;;;;;77.30;19.90;;;;;;;;;;4977351;28;20462;-92
2021/12/30 23:46:25;;;;;;;70.05;17.30;;;;;;;;;;4974529;28;20022;-92
2021/12/30 23:48:50;;;;;;;65.22;17.30;;;;;;;;;;4976000;28;20022;-91
2021/12/30 23:51:15;;;;;;;73.70;18.30;;;;;;;;;;4978227;28;20033;-91
2021/12/30 23:53:41;;;;;;;76.88;18.90;;;;;;;;;;4979070;28;20019;-92
2021/12/30 23:56:07;;;;;;;84.10;17.98;;;;;;;;;;4974276;28;20019;-91
2021/12/30 23:58:33;;;;;;;70.00;17.25;;;;;;;;;;4974508;28;20038;-91
